Time;durP1;ratioP1;P1;durP2;ratioP2;P2;SDS_P1;SDS_P2;PMS_P1;PMS_P2;Temp;Humidity;BMP_temperature;BMP_pressure;BME280_temperature;BME280_humidity;BME280_pressure;Samples;Min_cycle;Max_cycle;Signal;HPM_P1;HPM_P2
2023/08/27 00:01:12;;;;;;;;;2.67;2.67;;;;;-143.90;91.84;73836.91;4934276;28;102340;-79
2023/08/27 00:03:39;;;;;;;;;3.00;3.00;;;;;-143.90;91.56;73824.50;4933635;28;102508;-78
2023/08/27 00:06:06;;;;;;;;;2.00;2.00;;;;;-143.90;91.11;73828.63;4924417;27;103965;-78
2023/08/27 00:08:33;;;;;;;;;1.67;1.67;;;;;-143.90;91.04;73826.56;4925955;28;102661;-78
2023/08/27 00:11:00;;;;;;;;;0.67;0.00;;;;;-143.90;91.10;73836.91;4926541;28;102863;-78
2023/08/27 00:13:27;;;;;;;;;0.67;0.67;;;;;-143.90;90.65;73838.97;4928623;28;102575;-78
2023/08/27 00:15:54;;;;;;;;;0.33;0.33;;;;;-143.90;90.41;73857.56;4936205;28;104133;-78
2023/08/27 00:18:20;;;;;;;;;1.00;1.00;;;;;-143.90;90.49;73865.84;4928458;28;102004;-78
2023/08/27 00:20:50;;;;;;;;;1.00;1.00;;;;;-143.90;89.81;73876.16;4929255;28;102920;-78
2023/08/27 00:23:17;;;;;;;;;1.00;1.00;;;;;-143.90;90.76;73884.44;4927651;28;103554;-79
2023/08/27 00:25:43;;;;;;;;;0.00;0.00;;;;;-143.90;90.94;73880.31;4945291;28;104426;-78
2023/08/27 00:28:13;;;;;;;;;0.00;0.00;;;;;-143.90;90.69;73890.63;4927805;28;104411;-78
2023/08/27 00:30:41;;;;;;;;;2.33;2.33;;;;;-143.90;90.85;73909.25;4932127;28;102123;-79
2023/08/27 00:33:07;;;;;;;;;2.00;2.00;;;;;-143.90;91.56;73919.56;4935381;28;102503;-78
2023/08/27 00:35:35;;;;;;;;;2.00;2.00;;;;;-143.90;91.23;73929.91;4923962;28;103988;-78
2023/08/27 00:38:05;;;;;;;;;0.33;0.33;;;;;-143.90;91.14;73936.09;4924927;28;104272;-78
2023/08/27 00:40:31;;;;;;;;;2.00;1.67;;;;;-143.90;91.14;73927.84;4923618;27;102394;-78
2023/08/27 00:42:58;;;;;;;;;1.33;1.33;;;;;-143.90;91.00;73934.03;4935095;28;102175;-78
2023/08/27 00:45:26;;;;;;;;;2.00;2.00;;;;;-143.90;90.73;73915.44;4931162;28;104075;-78
2023/08/27 00:47:53;;;;;;;;;2.00;1.67;;;;;-143.90;91.45;73931.97;4926708;28;102996;-78
2023/08/27 00:50:21;;;;;;;;;3.00;3.00;;;;;-143.90;92.19;73938.19;4929554;28;102426;-78
2023/08/27 00:52:49;;;;;;;;;3.00;3.00;;;;;-143.90;92.52;73936.09;4942401;28;102491;-78
2023/08/27 00:55:16;;;;;;;;;2.00;2.00;;;;;-143.90;92.64;73944.38;4939266;28;103987;-79
2023/08/27 00:57:43;;;;;;;;;2.00;2.00;;;;;-143.90;93.18;73948.50;4930596;28;102344;-78
2023/08/27 01:00:10;;;;;;;;;1.00;1.00;;;;;-143.90;93.00;73954.72;4932367;28;102594;-78
2023/08/27 01:02:42;;;;;;;;;3.00;2.00;;;;;-143.90;93.04;73944.38;4926428;28;103953;-78
2023/08/27 01:05:11;;;;;;;;;2.00;2.00;;;;;-143.90;92.99;73938.19;4922625;28;108880;-78
2023/08/27 01:07:57;;;;;;;;;2.00;1.33;;;;;-143.90;93.08;73936.09;4930358;28;102307;-77
2023/08/27 01:11:01;;;;;;;;;1.67;1.67;;;;;-143.90;93.16;73927.84;4941878;28;103821;-77
2023/08/27 01:13:54;;;;;;;;;4.00;2.67;;;;;-143.90;92.54;73909.25;4938441;28;102396;-77
2023/08/27 01:16:23;;;;;;;;;0.33;0.00;;;;;-143.90;92.82;73907.16;4937456;28;108612;-78
2023/08/27 01:18:52;;;;;;;;;1.33;1.00;;;;;-143.90;92.47;73900.97;4934855;28;102212;-78
2023/08/27 01:21:19;;;;;;;;;0.00;0.00;;;;;-143.90;92.29;73898.91;4931762;28;102005;-78
2023/08/27 01:23:46;;;;;;;;;0.00;0.00;;;;;-143.90;92.03;73878.25;4932367;28;102331;-78
2023/08/27 01:26:22;;;;;;;;;0.67;0.33;;;;;-143.90;91.87;73874.09;4929853;28;103072;-78
2023/08/27 01:28:59;;;;;;;;;1.67;1.00;;;;;-143.90;92.18;73857.56;4916943;28;102292;-77
2023/08/27 01:31:30;;;;;;;;;1.00;0.00;;;;;-143.90;92.01;73845.16;4927653;28;101984;-77
2023/08/27 01:34:00;;;;;;;;;1.00;1.00;;;;;-143.90;92.10;73838.97;4929471;28;102486;-77
2023/08/27 01:36:28;;;;;;;;;0.00;0.00;;;;;-143.90;91.99;73830.69;4932939;28;103967;-77
2023/08/27 01:38:56;;;;;;;;;0.00;0.00;;;;;-143.90;92.07;73826.56;4935264;28;102044;-77
2023/08/27 01:41:23;;;;;;;;;0.00;0.00;;;;;-143.90;91.94;73832.78;4934612;28;102294;-77
2023/08/27 01:43:49;;;;;;;;;0.00;0.00;;;;;-143.90;91.99;73841.03;4935938;28;102561;-78
2023/08/27 01:46:16;;;;;;;;;0.00;0.00;;;;;-143.90;92.52;73843.09;4937933;28;103934;-78
2023/08/27 01:48:43;;;;;;;;;1.67;1.67;;;;;-143.90;92.97;73867.91;4928785;28;102372;-79
2023/08/27 01:51:09;;;;;;;;;2.33;2.33;;;;;-143.90;92.95;73872.03;4934333;28;101977;-77
2023/08/27 01:53:36;;;;;;;;;3.00;2.33;;;;;-143.90;92.40;73869.97;4932520;28;102327;-77
2023/08/27 01:56:05;;;;;;;;;2.67;2.00;;;;;-143.90;92.97;73874.09;4931342;28;104230;-77
2023/08/27 01:58:31;;;;;;;;;3.00;3.00;;;;;-143.90;93.37;73888.56;4944459;28;102000;-77
2023/08/27 02:00:59;;;;;;;;;3.00;3.00;;;;;-143.90;93.67;73884.44;4915232;28;102383;-77
2023/08/27 02:03:25;;;;;;;;;4.00;4.00;;;;;-143.90;94.23;73892.69;4933464;28;104083;-78
2023/08/27 02:05:52;;;;;;;;;1.33;1.33;;;;;-143.90;94.77;73890.63;4942130;28;104050;-77
2023/08/27 02:08:19;;;;;;;;;3.00;2.00;;;;;-143.90;94.63;73869.97;4926346;28;103042;-77
2023/08/27 02:10:48;;;;;;;;;2.00;2.00;;;;;-143.90;94.94;73855.50;4938598;28;102300;-77
2023/08/27 02:13:15;;;;;;;;;2.00;1.00;;;;;-143.90;94.48;73838.97;4932355;28;102133;-77
2023/08/27 02:15:45;;;;;;;;;1.00;1.00;;;;;-143.90;93.92;73832.78;4933900;28;115346;-77
2023/08/27 02:18:11;;;;;;;;;1.00;1.00;;;;;-143.90;92.75;73828.63;4934107;28;104886;-76
2023/08/27 02:20:38;;;;;;;;;0.00;0.00;;;;;-143.90;92.76;73832.78;4924787;28;101847;-76
2023/08/27 02:23:04;;;;;;;;;1.00;1.00;;;;;-143.90;91.96;73836.91;4945686;28;102045;-76
2023/08/27 02:25:31;;;;;;;;;0.00;0.00;;;;;-143.90;91.93;73845.16;4931258;28;104239;-77
2023/08/27 02:27:58;;;;;;;;;0.00;0.00;;;;;-143.90;91.59;73849.31;4934188;28;102494;-77
2023/08/27 02:30:24;;;;;;;;;0.33;0.33;;;;;-143.90;92.47;73865.84;4926887;28;102159;-76
2023/08/27 02:32:51;;;;;;;;;2.00;1.00;;;;;-143.90;93.20;73865.84;4933926;28;103762;-76
2023/08/27 02:35:17;;;;;;;;;2.33;2.00;;;;;-143.90;93.41;73861.69;4928842;28;103967;-77
2023/08/27 02:37:44;;;;;;;;;1.00;1.00;;;;;-143.90;93.40;73849.31;4924504;28;101861;-76
2023/08/27 02:40:13;;;;;;;;;1.00;1.00;;;;;-143.90;92.90;73847.25;4943242;28;102662;-76
2023/08/27 02:42:40;;;;;;;;;3.00;2.00;;;;;-143.90;92.56;73845.16;4942532;28;102557;-77
2023/08/27 02:45:07;;;;;;;;;0.00;0.00;;;;;-143.90;92.17;73851.38;4930388;28;104301;-76
2023/08/27 02:47:34;;;;;;;;;0.33;0.33;;;;;-143.90;91.89;73853.44;4931570;28;102240;-76
2023/08/27 02:50:00;;;;;;;;;1.00;1.00;;;;;-143.90;92.30;73855.50;4932287;28;102115;-77
2023/08/27 02:52:27;;;;;;;;;1.00;1.00;;;;;-143.90;92.17;73861.69;4939000;28;104029;-77
2023/08/27 02:54:53;;;;;;;;;0.00;0.00;;;;;-143.90;91.87;73847.25;4942399;28;104089;-77
2023/08/27 02:57:20;;;;;;;;;0.33;0.33;;;;;-143.90;91.15;73851.38;4924766;28;102847;-77
2023/08/27 02:59:47;;;;;;;;;1.00;1.00;;;;;-143.90;90.70;73857.56;4938104;28;102830;-78
2023/08/27 03:02:13;;;;;;;;;1.33;1.00;;;;;-143.90;89.61;73872.03;4933704;28;102618;-76
2023/08/27 03:04:40;;;;;;;;;2.33;2.33;;;;;-143.90;89.14;73878.25;4927643;28;104584;-77
2023/08/27 03:07:07;;;;;;;;;1.33;1.33;;;;;-143.90;90.09;73886.50;4935837;28;107724;-77
2023/08/27 03:09:34;;;;;;;;;2.33;2.33;;;;;-143.90;90.46;73886.50;4928798;28;102243;-76
2023/08/27 03:12:00;;;;;;;;;2.00;2.00;;;;;-143.90;91.04;73896.84;4948344;28;102397;-77
2023/08/27 03:14:27;;;;;;;;;2.00;2.00;;;;;-143.90;91.80;73915.44;4919076;28;104600;-77
2023/08/27 03:16:53;;;;;;;;;2.00;2.00;;;;;-143.90;92.60;73907.16;4934424;28;102522;-77
2023/08/27 03:19:20;;;;;;;;;2.67;2.67;;;;;-143.90;92.52;73917.50;4926454;28;102721;-77
2023/08/27 03:21:48;;;;;;;;;1.00;1.00;;;;;-143.90;92.91;73911.31;4943479;28;103654;-77
2023/08/27 03:24:14;;;;;;;;;2.00;2.00;;;;;-143.90;93.05;73915.44;4937652;28;108710;-77
2023/08/27 03:26:41;;;;;;;;;3.00;2.67;;;;;-143.90;92.98;73913.38;4947250;28;102964;-77
2023/08/27 03:29:07;;;;;;;;;1.00;1.00;;;;;-143.90;93.01;73921.63;4924896;28;103289;-77
2023/08/27 03:31:34;;;;;;;;;2.33;2.00;;;;;-143.90;92.75;73921.63;4935926;28;102318;-77
2023/08/27 03:34:01;;;;;;;;;2.00;2.00;;;;;-143.90;92.58;73915.44;4938004;28;104233;-77
2023/08/27 03:36:28;;;;;;;;;2.00;2.00;;;;;-143.90;92.97;73919.56;4928180;28;102061;-77
2023/08/27 03:38:57;;;;;;;;;2.00;2.00;;;;;-143.90;92.33;73911.31;4946217;28;102643;-77
2023/08/27 03:41:23;;;;;;;;;3.00;3.00;;;;;-143.90;92.22;73917.50;4930251;28;102951;-77
2023/08/27 03:43:50;;;;;;;;;4.33;4.00;;;;;-143.90;92.33;73921.63;4944509;28;103700;-77
2023/08/27 03:46:16;;;;;;;;;3.00;3.00;;;;;-143.90;92.83;73919.56;4943264;28;101863;-77
2023/08/27 03:48:43;;;;;;;;;3.00;3.00;;;;;-143.90;92.81;73915.44;4928686;28;104387;-77
2023/08/27 03:51:10;;;;;;;;;2.00;2.00;;;;;-143.90;92.80;73919.56;4929820;28;102387;-77
2023/08/27 03:53:37;;;;;;;;;2.67;2.67;;;;;-143.90;92.91;73911.31;4928591;28;104044;-77
2023/08/27 03:56:03;;;;;;;;;1.00;1.00;;;;;-143.90;92.63;73911.31;4931093;28;104057;-77
2023/08/27 03:58:31;;;;;;;;;0.00;0.00;;;;;-143.90;92.65;73911.31;4939942;28;102474;-77
2023/08/27 04:00:57;;;;;;;;;3.00;2.00;;;;;-143.90;93.06;73923.72;4945767;28;102395;-76
2023/08/27 04:03:24;;;;;;;;;4.00;2.33;;;;;-143.90;92.99;73919.56;4931286;28;104175;-77
2023/08/27 04:05:51;;;;;;;;;3.00;2.00;;;;;-143.90;93.07;73911.31;4932316;28;102814;-77
2023/08/27 04:08:18;;;;;;;;;2.00;1.00;;;;;-143.90;92.85;73905.09;4937803;28;103762;-78
2023/08/27 04:10:52;;;;;;;;;1.00;1.00;;;;;-143.90;93.18;73896.84;4945624;28;102016;-77
2023/08/27 04:13:19;;;;;;;;;3.33;2.67;;;;;-143.90;93.37;73890.63;4942018;28;108877;-78
2023/08/27 04:15:47;;;;;;;;;2.00;2.00;;;;;-143.90;92.37;73898.91;4939953;28;102271;-77
2023/08/27 04:18:13;;;;;;;;;3.00;3.00;;;;;-143.90;92.66;73905.09;4937634;28;104037;-77
2023/08/27 04:20:40;;;;;;;;;2.33;2.33;;;;;-143.90;92.64;73903.03;4932451;28;102120;-77
2023/08/27 04:23:07;;;;;;;;;1.67;1.00;;;;;-143.90;93.37;73896.84;4932493;28;104045;-77
2023/08/27 04:25:33;;;;;;;;;1.00;0.00;;;;;-143.90;93.39;73888.56;4943352;28;102530;-76
2023/08/27 04:28:00;;;;;;;;;0.33;0.33;;;;;-143.90;93.11;73890.63;4932752;28;101978;-76
2023/08/27 04:30:27;;;;;;;;;1.00;1.00;;;;;-143.90;93.38;73884.44;4936176;28;102266;-76
2023/08/27 04:32:54;;;;;;;;;0.67;0.67;;;;;-143.90;92.97;73878.25;4924554;28;104354;-76
2023/08/27 04:35:20;;;;;;;;;2.00;2.00;;;;;-143.90;92.84;73874.09;4923424;28;102290;-77
2023/08/27 04:37:47;;;;;;;;;2.00;2.00;;;;;-143.90;92.54;73878.25;4932272;28;102265;-76
2023/08/27 04:40:14;;;;;;;;;2.00;2.00;;;;;-143.90;92.56;73874.09;4931632;28;102363;-76
2023/08/27 04:42:41;;;;;;;;;2.00;2.00;;;;;-143.90;92.36;73865.84;4926442;28;104362;-76
2023/08/27 04:45:09;;;;;;;;;1.00;1.00;;;;;-143.90;92.66;73861.69;4930933;28;101945;-76
2023/08/27 04:47:36;;;;;;;;;0.00;0.00;;;;;-143.90;92.59;73851.38;4936162;28;103960;-76
2023/08/27 04:50:03;;;;;;;;;1.33;1.00;;;;;-143.90;92.66;73841.03;4928841;28;102434;-76
2023/08/27 04:52:29;;;;;;;;;1.67;1.00;;;;;-143.90;92.92;73832.78;4941084;28;104214;-77
2023/08/27 04:54:58;;;;;;;;;2.67;2.67;;;;;-143.90;92.11;73822.44;4938817;28;102304;-77
2023/08/27 04:57:25;;;;;;;;;2.33;2.33;;;;;-143.90;91.72;73820.38;4939820;28;102063;-77
2023/08/27 04:59:51;;;;;;;;;3.00;2.00;;;;;-143.90;91.64;73816.25;4942630;28;102604;-77
2023/08/27 05:02:18;;;;;;;;;2.00;2.00;;;;;-143.90;91.67;73812.09;4927636;28;104178;-77
2023/08/27 05:04:45;;;;;;;;;3.00;3.00;;;;;-143.90;92.29;73807.97;4935676;28;101828;-77
2023/08/27 05:07:12;;;;;;;;;3.67;2.33;;;;;-143.90;92.77;73801.78;4930997;28;102365;-77
2023/08/27 05:09:38;;;;;;;;;2.00;2.00;;;;;-143.90;92.94;73797.63;4943480;28;103119;-77
2023/08/27 05:12:05;;;;;;;;;1.00;1.00;;;;;-143.90;92.80;73799.69;4935859;28;104043;-77
2023/08/27 05:14:31;;;;;;;;;2.00;1.00;;;;;-143.90;92.83;73779.03;4930753;28;102339;-77
2023/08/27 05:16:58;;;;;;;;;1.67;1.67;;;;;-143.90;92.43;73770.78;4919253;28;108091;-76
2023/08/27 05:19:25;;;;;;;;;1.67;1.67;;;;;-143.90;91.85;73762.50;4918807;28;102557;-76
2023/08/27 05:21:51;;;;;;;;;3.00;3.00;;;;;-143.90;91.59;73754.25;4942568;27;104140;-76
2023/08/27 05:24:18;;;;;;;;;1.67;1.67;;;;;-143.90;92.05;73739.78;4936744;27;102256;-77
2023/08/27 05:26:44;;;;;;;;;3.67;3.00;;;;;-143.90;91.75;73729.44;4935435;28;102775;-76
2023/08/27 05:29:11;;;;;;;;;3.33;2.00;;;;;-143.90;91.30;73725.31;4932158;28;102510;-77
2023/08/27 05:31:38;;;;;;;;;1.67;1.67;;;;;-143.90;90.64;73721.16;4932002;28;104210;-77
2023/08/27 05:34:04;;;;;;;;;2.00;2.00;;;;;-143.90;90.04;73721.16;4923249;28;102735;-77
2023/08/27 05:36:31;;;;;;;;;3.00;2.67;;;;;-143.90;89.37;73721.16;4938849;28;102073;-77
2023/08/27 05:38:58;;;;;;;;;3.33;2.33;;;;;-143.90;89.87;73700.50;4946471;28;103990;-77
2023/08/27 05:41:24;;;;;;;;;0.00;0.00;;;;;-143.90;89.79;73704.63;4937093;28;104344;-78
2023/08/27 05:43:51;;;;;;;;;1.00;1.00;;;;;-143.90;88.98;73692.25;4931699;28;102061;-77
2023/08/27 05:46:18;;;;;;;;;2.33;2.00;;;;;-143.90;88.48;73688.09;4930075;28;102316;-76
2023/08/27 05:48:44;;;;;;;;;2.00;1.00;;;;;-143.90;88.70;73698.44;4941743;28;102734;-75
2023/08/27 05:51:11;;;;;;;;;2.00;2.00;;;;;-143.90;89.01;73690.16;4930293;28;104366;-76
2023/08/27 05:53:38;;;;;;;;;1.33;1.33;;;;;-143.90;88.76;73681.91;4929086;28;101980;-76
2023/08/27 05:56:05;;;;;;;;;2.00;2.00;;;;;-143.90;88.63;73677.78;4938628;28;102364;-76
2023/08/27 05:58:31;;;;;;;;;2.67;2.67;;;;;-143.90;88.19;73681.91;4930129;28;104280;-77
2023/08/27 06:00:58;;;;;;;;;2.33;2.33;;;;;-143.90;88.12;73679.84;4934588;28;104030;-77
2023/08/27 06:03:25;;;;;;;;;1.33;1.00;;;;;-143.90;87.89;73675.69;4941256;28;102076;-78
2023/08/27 06:05:51;;;;;;;;;1.00;1.00;;;;;-143.90;87.57;73679.84;4940663;28;102115;-76
2023/08/27 06:08:18;;;;;;;;;2.00;2.00;;;;;-143.90;87.81;73675.69;4937514;28;102335;-77
2023/08/27 06:10:45;;;;;;;;;1.00;1.00;;;;;-143.90;87.85;73669.50;4938565;28;104188;-76
2023/08/27 06:13:11;;;;;;;;;1.00;1.00;;;;;-143.90;87.87;73679.84;4932133;28;102018;-76
2023/08/27 06:15:38;;;;;;;;;2.00;1.67;;;;;-143.90;87.68;73679.84;4927905;28;106447;-76
2023/08/27 06:18:05;;;;;;;;;3.00;3.00;;;;;-143.90;87.69;73671.56;4930066;28;102141;-76
2023/08/27 06:20:35;;;;;;;;;2.00;2.00;;;;;-143.90;87.58;73659.16;4934128;28;104108;-75
2023/08/27 06:23:04;;;;;;;;;4.33;4.00;;;;;-143.90;87.23;73667.44;4944674;28;102759;-76
2023/08/27 06:25:34;;;;;;;;;2.67;2.00;;;;;-143.90;87.64;73659.16;4931450;28;102503;-76
2023/08/27 06:28:05;;;;;;;;;0.33;0.00;;;;;-143.90;87.14;73648.84;4930077;28;102558;-75
2023/08/27 06:30:32;;;;;;;;;1.00;1.00;;;;;-143.90;86.89;73650.91;4915182;28;104332;-76
2023/08/27 06:32:58;;;;;;;;;2.00;2.00;;;;;-143.90;86.46;73655.03;4928175;28;101970;-76
2023/08/27 06:35:25;;;;;;;;;3.00;2.67;;;;;-143.90;85.91;73650.91;4921229;28;102784;-76
2023/08/27 06:37:52;;;;;;;;;2.00;2.00;;;;;-143.90;85.98;73644.69;4933518;28;102336;-75
2023/08/27 06:40:19;;;;;;;;;2.33;2.33;;;;;-143.90;85.69;73638.50;4935079;28;109159;-76
2023/08/27 06:42:45;;;;;;;;;3.00;2.00;;;;;-143.90;85.44;73628.16;4936415;28;102266;-75
2023/08/27 06:45:12;;;;;;;;;1.00;1.00;;;;;-143.90;85.67;73611.63;4941045;28;102129;-76
2023/08/27 06:47:39;;;;;;;;;5.00;5.00;;;;;-143.90;86.10;73628.16;4940243;28;102506;-76
2023/08/27 06:50:06;;;;;;;;;5.33;5.00;;;;;-143.90;85.89;73619.91;4923859;28;104217;-75
2023/08/27 06:52:33;;;;;;;;;2.00;2.00;;;;;-143.90;85.46;73607.50;4936333;28;102368;-75
2023/08/27 06:55:00;;;;;;;;;3.00;3.00;;;;;-143.90;85.04;73599.25;4938647;28;102399;-76
2023/08/27 06:57:28;;;;;;;;;3.00;2.00;;;;;-143.90;84.12;73597.16;4934284;28;103935;-76
2023/08/27 06:59:54;;;;;;;;;6.33;5.00;;;;;-143.90;85.53;73630.25;4927946;28;104071;-76
2023/08/27 07:02:21;;;;;;;;;4.00;4.00;;;;;-143.90;85.35;73617.84;4937778;28;102231;-76
2023/08/27 07:04:48;;;;;;;;;6.00;6.00;;;;;-143.90;85.14;73601.31;4931234;28;102453;-76
2023/08/27 07:07:14;;;;;;;;;3.33;3.33;;;;;-143.90;84.59;73597.16;4939918;28;102304;-76
2023/08/27 07:09:42;;;;;;;;;2.67;2.67;;;;;-143.90;85.15;73588.91;4918548;28;104183;-76
2023/08/27 07:12:09;;;;;;;;;3.33;3.33;;;;;-143.90;85.06;73597.16;4933229;28;102298;-76
2023/08/27 07:14:35;;;;;;;;;1.67;1.67;;;;;-143.90;83.62;73597.16;4934334;28;102435;-76
2023/08/27 07:17:02;;;;;;;;;4.00;4.00;;;;;-143.90;83.59;73593.03;4936996;27;102080;-76
2023/08/27 07:19:28;;;;;;;;;3.00;3.00;;;;;-143.90;83.54;73590.97;4927092;28;104007;-76
2023/08/27 07:21:58;;;;;;;;;2.67;2.67;;;;;-143.90;82.57;73588.91;4937136;28;102241;-76
2023/08/27 07:24:24;;;;;;;;;4.67;4.67;;;;;-143.90;82.44;73593.03;4936530;28;102356;-77
2023/08/27 07:26:51;;;;;;;;;5.33;5.00;;;;;-143.90;83.26;73584.78;4929562;28;102455;-76
2023/08/27 07:29:18;;;;;;;;;3.00;2.33;;;;;-143.90;83.72;73572.38;4927756;28;104322;-77
2023/08/27 07:31:45;;;;;;;;;4.33;3.33;;;;;-143.90;82.81;73572.38;4927292;28;102201;-76
2023/08/27 07:34:11;;;;;;;;;3.67;3.67;;;;;-143.90;82.55;73559.97;4932620;28;102434;-77
2023/08/27 07:36:38;;;;;;;;;6.33;5.00;;;;;-143.90;82.67;73551.72;4932433;28;102332;-77
2023/08/27 07:39:04;;;;;;;;;8.33;8.33;;;;;-143.90;82.48;73545.50;4934765;28;104235;-77
2023/08/27 07:41:31;;;;;;;;;11.33;9.67;;;;;-143.90;83.47;73559.97;4928820;28;102091;-77
2023/08/27 07:43:58;;;;;;;;;7.00;6.33;;;;;-143.90;82.29;73580.63;4926667;28;101977;-77
2023/08/27 07:46:24;;;;;;;;;20.00;19.67;;;;;-143.90;81.37;73568.25;4933100;28;103392;-79
2023/08/27 07:48:51;;;;;;;;;16.00;16.00;;;;;-143.90;80.57;73559.97;4943410;28;103986;-77
2023/08/27 07:51:18;;;;;;;;;13.67;12.33;;;;;-143.90;82.65;73543.44;4931316;28;102217;-77
2023/08/27 07:53:44;;;;;;;;;13.67;12.33;;;;;-143.90;81.75;73535.19;4935376;28;103195;-77
2023/08/27 07:56:11;;;;;;;;;9.67;9.00;;;;;-143.90;82.01;73508.31;4951355;28;102110;-77
2023/08/27 07:58:37;;;;;;;;;19.33;18.33;;;;;-143.90;79.81;73493.84;4946396;28;103993;-77
2023/08/27 08:01:04;;;;;;;;;13.67;13.00;;;;;-143.90;79.28;73508.31;4932038;28;102277;-77
2023/08/27 08:03:30;;;;;;;;;14.00;13.00;;;;;-143.90;78.66;73537.25;4933450;28;102571;-77
2023/08/27 08:05:57;;;;;;;;;16.33;15.00;;;;;-143.90;78.78;73531.03;4928464;28;102064;-77
2023/08/27 08:08:24;;;;;;;;;10.67;10.00;;;;;-143.90;79.70;73506.25;4938111;28;104464;-77
2023/08/27 08:10:55;;;;;;;;;13.00;12.00;;;;;-143.90;78.73;73497.97;4929832;28;102424;-77
2023/08/27 08:13:23;;;;;;;;;7.67;7.67;;;;;-143.90;79.90;73522.78;4938720;28;102417;-77
2023/08/27 08:15:50;;;;;;;;;10.00;10.00;;;;;-143.90;80.35;73541.38;4934040;28;102136;-77
2023/08/27 08:18:16;;;;;;;;;11.00;11.00;;;;;-143.90;82.13;73531.03;4926020;28;104461;-76
2023/08/27 08:20:44;;;;;;;;;11.00;11.00;;;;;-143.90;83.54;73531.03;4942706;28;102020;-77
2023/08/27 08:23:11;;;;;;;;;13.00;12.33;;;;;-143.90;83.26;73514.50;4929602;28;102390;-77
2023/08/27 08:25:37;;;;;;;;;10.33;8.67;;;;;-143.90;82.45;73514.50;4943179;28;102755;-77
2023/08/27 08:28:04;;;;;;;;;9.33;8.67;;;;;-143.90;82.94;73495.91;4930776;28;104263;-77
2023/08/27 08:30:31;;;;;;;;;4.67;4.67;;;;;-143.90;81.70;73487.66;4937765;28;102934;-77
2023/08/27 08:32:57;;;;;;;;;6.00;6.00;;;;;-143.90;82.63;73466.97;4920012;28;104381;-77
2023/08/27 08:35:24;;;;;;;;;4.00;4.00;;;;;-143.90;81.86;73448.38;4931745;28;102381;-77
2023/08/27 08:37:51;;;;;;;;;4.33;3.67;;;;;-143.90;81.35;73433.91;4944049;28;104289;-76
2023/08/27 08:40:18;;;;;;;;;4.00;3.33;;;;;-143.90;80.64;73415.31;4945044;28;102237;-77
2023/08/27 08:42:59;;;;;;;;;3.67;2.33;;;;;-143.90;79.89;73398.78;4924624;28;102592;-76
2023/08/27 08:45:44;;;;;;;;;4.00;4.00;;;;;-143.90;79.85;73374.00;4923892;28;102412;-76
2023/08/27 08:48:12;;;;;;;;;3.00;3.00;;;;;-143.90;79.87;73343.00;4934763;28;108423;-77
2023/08/27 08:50:41;;;;;;;;;4.00;4.00;;;;;-143.90;79.12;73326.47;4929409;28;102220;-77
2023/08/27 08:53:17;;;;;;;;;12.67;11.67;;;;;-143.90;77.66;73328.53;4928377;28;102709;-77
2023/08/27 08:55:46;;;;;;;;;4.67;4.67;;;;;-143.90;77.80;73324.41;4928512;28;103936;-77
2023/08/27 08:58:13;;;;;;;;;10.33;8.67;;;;;-143.90;76.09;73334.72;4932403;28;104141;-77
2023/08/27 09:00:40;;;;;;;;;8.00;7.00;;;;;-143.90;77.30;73314.06;4931636;28;102782;-77
2023/08/27 09:03:07;;;;;;;;;7.00;6.00;;;;;-143.90;77.28;73303.72;4936610;28;102478;-77
2023/08/27 09:05:37;;;;;;;;;5.00;4.67;;;;;-143.90;77.07;73291.31;4926492;28;102851;-77
2023/08/27 09:08:05;;;;;;;;;3.00;3.00;;;;;-143.90;75.73;73291.31;4931245;28;103837;-77
2023/08/27 09:10:32;;;;;;;;;5.00;5.00;;;;;-143.90;74.71;73307.84;4926450;28;102200;-76
2023/08/27 09:13:02;;;;;;;;;7.00;6.00;;;;;-143.90;75.74;73299.59;4930233;28;104181;-77
2023/08/27 09:15:29;;;;;;;;;5.00;5.00;;;;;-143.90;74.63;73336.78;4938099;28;102016;-80
2023/08/27 09:17:56;;;;;;;;;6.33;5.33;;;;;-143.90;76.85;73316.13;4927365;28;104051;-78
2023/08/27 09:20:24;;;;;;;;;5.00;5.00;;;;;-143.90;76.68;73314.06;4937685;28;104139;-79
2023/08/27 09:22:51;;;;;;;;;7.33;7.33;;;;;-143.90;74.46;73312.00;4933770;28;104501;-76
2023/08/27 09:25:18;;;;;;;;;6.00;6.00;;;;;-143.90;76.13;73299.59;4919465;28;104191;-77
2023/08/27 09:27:45;;;;;;;;;5.67;5.00;;;;;-143.90;72.36;73295.47;4932516;28;104145;-78
2023/08/27 09:30:15;;;;;;;;;8.33;8.33;;;;;-143.90;75.32;73276.88;4924454;28;102302;-76
2023/08/27 09:32:45;;;;;;;;;8.67;8.67;;;;;-143.90;75.80;73266.53;4942568;28;102322;-76
2023/08/27 09:35:11;;;;;;;;;6.67;6.33;;;;;-143.90;74.16;73254.13;4926621;28;102108;-76
2023/08/27 09:37:41;;;;;;;;;10.00;9.00;;;;;-143.90;72.45;73258.25;4934254;28;104244;-76
2023/08/27 09:40:10;;;;;;;;;6.00;6.00;;;;;-143.90;73.06;73262.41;4905984;28;103600;-76
2023/08/27 09:42:38;;;;;;;;;9.67;9.67;;;;;-143.90;73.26;73264.47;4939707;28;103123;-76
2023/08/27 09:45:06;;;;;;;;;6.33;6.00;;;;;-143.90;70.56;73278.94;4937197;28;102124;-76
2023/08/27 09:47:37;;;;;;;;;7.00;7.00;;;;;-143.90;73.68;73270.66;4933280;28;104193;-77
2023/08/27 09:50:14;;;;;;;;;6.00;6.00;;;;;-143.90;74.27;73262.41;4942548;28;102037;-76
2023/08/27 09:52:42;;;;;;;;;6.33;5.67;;;;;-143.90;72.62;73254.13;4932745;28;102639;-77
2023/08/27 09:55:13;;;;;;;;;6.00;6.00;;;;;-143.90;74.05;73250.00;4938276;28;102068;-76
2023/08/27 09:57:48;;;;;;;;;7.00;6.00;;;;;-143.90;72.95;73250.00;4929205;28;103989;-76
2023/08/27 10:00:16;;;;;;;;;9.33;9.00;;;;;-143.90;73.46;73241.75;4949645;28;101954;-77
2023/08/27 10:02:43;;;;;;;;;5.33;5.33;;;;;-143.90;72.67;73241.75;4939265;28;102376;-77
2023/08/27 10:05:10;;;;;;;;;8.00;8.00;;;;;-143.90;72.64;73229.34;4944572;28;102706;-77
2023/08/27 10:07:36;;;;;;;;;6.67;6.67;;;;;-143.90;72.52;73212.81;4944988;28;104299;-76
2023/08/27 10:10:05;;;;;;;;;6.67;6.67;;;;;-143.90;71.33;73202.47;4932386;28;102312;-77
2023/08/27 10:12:32;;;;;;;;;12.00;11.00;;;;;-143.90;70.32;73216.94;4936543;28;102243;-76
2023/08/27 10:15:00;;;;;;;;;9.00;8.33;;;;;-143.90;72.92;73185.94;4949437;28;101989;-77
2023/08/27 10:17:27;;;;;;;;;6.00;5.67;;;;;-143.90;71.95;73167.34;4944017;28;104259;-77
2023/08/27 10:19:55;;;;;;;;;7.00;7.00;;;;;-143.90;71.42;73152.88;4940547;28;102278;-76
2023/08/27 10:22:22;;;;;;;;;10.67;10.67;;;;;-143.90;69.60;73177.69;4943189;28;102244;-77
2023/08/27 10:24:50;;;;;;;;;8.00;7.00;;;;;-143.90;70.44;73181.81;4940042;28;102590;-78
2023/08/27 10:27:18;;;;;;;;;8.33;7.00;;;;;-143.90;71.19;73175.63;4930193;28;104852;-77
2023/08/27 10:29:46;;;;;;;;;10.33;8.00;;;;;-143.90;70.19;73175.63;4932282;28;102200;-77
2023/08/27 10:32:13;;;;;;;;;7.67;6.00;;;;;-143.90;70.22;73179.75;4944071;28;102016;-75
2023/08/27 10:34:39;;;;;;;;;7.67;6.00;;;;;-143.90;70.99;73188.00;4946684;28;102043;-75
2023/08/27 10:37:09;;;;;;;;;6.67;6.67;;;;;-143.90;70.50;73179.75;4938144;28;104085;-74
2023/08/27 10:39:37;;;;;;;;;7.00;6.33;;;;;-143.90;71.59;73165.28;4945827;28;102454;-75
2023/08/27 10:42:04;;;;;;;;;9.00;8.00;;;;;-143.90;71.23;73159.09;3128520;28;10104402;-73
2023/08/27 10:44:32;;;;;;;;;9.00;8.50;;;;;-143.90;71.78;73152.88;4925045;28;101905;-75
2023/08/27 10:47:14;;;;;;;;;8.00;7.00;;;;;-143.90;71.69;73157.00;4933251;28;104204;-75
2023/08/27 10:49:45;;;;;;;;;6.00;5.00;;;;;-143.90;71.60;73157.00;4933153;28;104073;-74
2023/08/27 10:52:13;;;;;;;;;7.33;6.00;;;;;-143.90;70.77;73150.81;4931969;28;102866;-74
2023/08/27 10:54:40;;;;;;;;;8.00;7.33;;;;;-143.90;71.76;73146.69;4934995;28;102311;-75
2023/08/27 10:57:17;;;;;;;;;6.67;6.67;;;;;-143.90;70.27;73140.47;4939433;28;104163;-75
2023/08/27 10:59:44;;;;;;;;;7.00;7.00;;;;;-143.90;69.47;73142.56;4938929;28;101819;-76
2023/08/27 11:02:11;;;;;;;;;7.00;6.33;;;;;-143.90;70.63;73126.03;4938082;28;102428;-75
2023/08/27 11:04:41;;;;;;;;;6.00;6.00;;;;;-143.90;70.70;73109.50;4945074;28;102561;-76
2023/08/27 11:07:08;;;;;;;;;9.33;8.67;;;;;-143.90;70.28;73109.50;4936370;28;104200;-76
2023/08/27 11:09:44;;;;;;;;;8.00;8.00;;;;;-143.90;69.45;73123.94;4933335;28;102161;-76